Time;durP1;ratioP1;P1;durP2;ratioP2;P2;SDS_P1;SDS_P2;PMS_P1;PMS_P2;Temp;Humidity;BMP_temperature;BMP_pressure;BME280_temperature;BME280_humidity;BME280_pressure;Samples;Min_cycle;Max_cycle;Signal;HPM_P1;HPM_P2
2022/08/11 00:00:37;;;;;;;5.57;3.05;;;21.50;78.20;;;18.66;72.27;101176.41;5030964;28;20280;-86
2022/08/11 00:03:07;;;;;;;5.85;2.85;;;21.50;78.40;;;18.62;72.57;101180.63;5043751;28;20128;-86
2022/08/11 00:05:46;;;;;;;5.57;3.10;;;21.40;78.50;;;18.60;72.83;101171.75;5050173;28;20491;-86
2022/08/11 00:08:23;;;;;;;6.93;3.10;;;21.40;78.80;;;18.56;73.42;101174.09;5050632;28;20047;-86
2022/08/11 00:10:57;;;;;;;8.25;3.05;;;21.50;79.30;;;18.50;73.59;101172.22;5050220;28;20048;-86
2022/08/11 00:13:33;;;;;;;7.60;3.30;;;21.40;79.10;;;18.47;73.64;101172.69;5042642;28;20128;-86
2022/08/11 00:16:02;;;;;;;6.07;2.72;;;21.30;79.20;;;18.43;73.68;101168.66;5041517;28;20051;-85
2022/08/11 00:18:38;;;;;;;6.75;2.95;;;21.30;79.30;;;18.40;73.62;101171.88;5050311;28;20044;-86
2022/08/11 00:21:07;;;;;;;5.07;2.88;;;21.20;79.10;;;18.33;74.13;101178.28;5050538;28;20047;-86
2022/08/11 00:23:43;;;;;;;5.57;3.25;;;21.20;79.40;;;18.32;74.67;101175.75;5049767;28;20052;-86
2022/08/11 00:26:12;;;;;;;6.05;3.22;;;21.20;79.80;;;18.25;75.02;101178.50;5031489;28;20448;-86
2022/08/11 00:28:40;;;;;;;5.60;2.85;;;21.20;80.00;;;18.21;75.26;101174.50;5034590;28;20071;-86
2022/08/11 00:31:11;;;;;;;7.43;3.10;;;21.10;80.00;;;18.17;75.57;101173.25;5049825;28;20124;-86
2022/08/11 00:33:41;;;;;;;7.47;3.22;;;21.10;80.20;;;18.14;75.93;101173.69;5041172;28;20041;-86
2022/08/11 00:36:15;;;;;;;6.68;3.05;;;21.10;80.50;;;18.09;76.10;101176.28;5048350;28;20049;-86
2022/08/11 00:38:45;;;;;;;8.25;3.22;;;21.00;80.50;;;18.03;76.46;101177.13;5030656;28;20037;-85
2022/08/11 00:41:31;;;;;;;6.53;2.95;;;21.00;80.70;;;17.96;77.29;101183.50;5034504;28;20069;-86
2022/08/11 00:44:30;;;;;;;5.90;3.00;;;20.90;81.10;;;17.91;77.32;101174.19;5046190;28;20037;-85
2022/08/11 00:47:10;;;;;;;8.90;3.20;;;20.90;81.10;;;17.84;77.45;101179.75;5048525;28;20585;-86
2022/08/11 00:49:57;;;;;;;6.60;3.05;;;20.80;81.10;;;17.80;77.35;101178.47;5056101;28;20510;-85
2022/08/11 00:52:57;;;;;;;8.25;3.33;;;20.80;81.00;;;17.74;78.08;101173.78;5044171;28;20042;-85
2022/08/11 00:56:08;;;;;;;6.07;3.00;;;20.80;81.40;;;17.70;78.32;101181.63;5043140;28;20042;-85
2022/08/11 00:59:21;;;;;;;8.73;3.17;;;20.80;81.70;;;17.64;78.31;101178.91;5043227;28;20040;-86
2022/08/11 01:02:15;;;;;;;5.72;3.38;;;20.70;81.50;;;17.58;78.93;101175.13;5038240;28;20037;-86
2022/08/11 01:05:51;;;;;;;5.70;3.10;;;20.70;81.80;;;17.53;79.08;101175.75;5051227;28;20037;-86
2022/08/11 01:08:58;;;;;;;5.40;2.90;;;20.60;81.90;;;17.52;79.19;101175.97;4953873;28;20050;-86
2022/08/11 01:12:20;;;;;;;7.10;3.30;;;20.60;82.00;;;17.44;80.31;101179.81;4986260;28;20061;-86
2022/08/11 01:16:04;;;;;;;12.20;3.15;;;20.60;82.60;;;17.42;79.77;101175.56;5016626;28;20063;-86
2022/08/11 01:19:26;;;;;;;6.75;3.25;;;20.50;82.40;;;17.32;80.51;101185.09;5016733;28;20049;-86
2022/08/11 01:22:34;;;;;;;7.22;2.92;;;20.50;82.90;;;17.30;80.90;101178.13;5030845;28;20069;-85
2022/08/11 01:26:16;;;;;;;8.10;3.30;;;20.40;82.80;;;17.25;80.85;101183.41;5043198;28;20049;-86
2022/08/11 01:29:55;;;;;;;5.93;3.10;;;20.40;82.90;;;17.17;82.11;101182.56;4992573;28;20050;-85
2022/08/11 01:33:22;;;;;;;8.32;3.50;;;20.30;83.50;;;17.12;81.96;101176.84;5004134;28;20046;-85
2022/08/11 01:36:40;;;;;;;6.97;3.03;;;20.30;83.50;;;17.09;82.18;101185.53;5034090;28;20038;-86
2022/08/11 01:40:18;;;;;;;8.07;3.20;;;20.30;83.50;;;17.01;81.92;101180.25;5034047;28;20049;-85
2022/08/11 01:46:32;;;;;;;5.85;3.45;;;20.10;83.90;;;16.95;82.63;101179.19;5027996;28;20091;-86
2022/08/11 01:49:15;;;;;;;7.53;3.08;;;20.10;83.90;;;16.92;82.89;101181.50;5052719;28;20144;-86
2022/08/11 01:52:08;;;;;;;8.20;3.28;;;20.10;84.00;;;16.89;83.58;101177.28;5053111;28;20072;-86
2022/08/11 01:54:44;;;;;;;5.53;3.15;;;20.00;84.10;;;16.88;83.79;101177.47;5052554;28;20049;-86
2022/08/11 01:57:31;;;;;;;6.32;3.58;;;20.00;84.30;;;16.86;83.47;101176.84;5050987;28;20560;-86
2022/08/11 02:00:10;;;;;;;7.57;3.35;;;20.00;84.40;;;16.81;84.29;101186.53;5015893;28;20046;-86
2022/08/11 02:02:53;;;;;;;7.90;3.20;;;20.00;84.60;;;16.77;84.90;101184.41;5043598;28;20041;-86
2022/08/11 02:05:40;;;;;;;8.18;3.25;;;20.00;85.00;;;16.73;84.32;101183.13;5040065;28;20045;-85
2022/08/11 02:08:23;;;;;;;6.25;3.20;;;19.90;84.80;;;16.71;84.59;101188.00;5050744;28;20124;-86
2022/08/11 02:13:53;;;;;;;6.40;3.08;;;19.90;85.10;;;16.67;85.69;101190.31;5041381;28;20531;-86
2022/08/11 02:16:37;;;;;;;6.18;3.45;;;19.80;85.50;;;16.59;85.34;101177.59;5032928;28;20042;-86
2022/08/11 02:25:02;;;;;;;6.25;3.35;;;19.80;85.70;;;16.52;86.55;101184.16;5051789;28;20102;-86
2022/08/11 02:27:41;;;;;;;4.65;3.20;;;19.70;86.00;;;16.47;86.91;101182.03;5052698;28;20044;-85
2022/08/11 02:30:14;;;;;;;6.05;3.50;;;19.70;86.00;;;16.44;86.90;101182.44;5051299;28;20216;-86
2022/08/11 02:35:55;;;;;;;6.28;2.95;;;19.70;86.50;;;16.41;87.34;101185.59;5050585;28;20530;-86
2022/08/11 02:38:31;;;;;;;7.05;3.60;;;19.60;86.60;;;16.36;88.07;101186.22;5036786;28;20037;-86
2022/08/11 02:42:21;;;;;;;6.85;3.58;;;19.60;86.70;;;16.35;88.16;101186.41;5043059;28;20048;-86
2022/08/11 02:44:22;;;;;;;4.78;3.28;;;19.60;86.80;;;16.29;88.88;101179.84;5040755;28;20045;-86
2022/08/11 02:47:07;;;;;;;5.47;3.13;;;19.50;87.20;;;16.28;88.55;101180.06;5034668;28;20037;-86
2022/08/11 02:49:55;;;;;;;5.85;3.40;;;19.50;87.10;;;16.26;88.86;101183.03;5052135;28;20049;-86
2022/08/11 02:52:39;;;;;;;7.00;3.38;;;19.50;87.20;;;16.21;88.90;101174.56;5051222;28;20499;-86
2022/08/11 02:55:22;;;;;;;6.57;3.38;;;19.50;87.30;;;16.18;89.08;101183.19;5041763;28;20120;-85
2022/08/11 02:57:59;;;;;;;7.15;3.08;;;19.50;87.40;;;16.15;89.15;101180.88;5051777;28;20037;-86
2022/08/11 03:00:30;;;;;;;6.65;3.45;;;19.40;87.30;;;16.13;89.63;101185.72;5045043;28;20045;-86
2022/08/11 03:03:16;;;;;;;8.27;4.05;;;19.40;87.60;;;16.09;89.79;101181.66;5042191;28;20037;-86
2022/08/11 03:05:58;;;;;;;9.73;3.25;;;19.30;87.60;;;16.07;90.26;101178.28;5050905;28;20053;-86
2022/08/11 03:08:51;;;;;;;7.80;3.30;;;19.30;87.90;;;16.02;90.70;101182.50;5044058;28;20511;-86
2022/08/11 03:17:30;;;;;;;6.63;3.42;;;19.20;88.30;;;15.96;91.12;101172.34;5051361;28;20616;-86
2022/08/11 03:20:21;;;;;;;7.47;3.47;;;19.20;88.40;;;15.91;91.52;101180.31;5043185;28;20238;-86
2022/08/11 03:22:57;;;;;;;8.55;3.08;;;19.20;88.50;;;15.92;91.81;101176.53;5031923;28;20481;-86
2022/08/11 03:25:33;;;;;;;6.47;3.58;;;19.20;88.80;;;15.88;92.17;101186.25;5031343;28;20128;-85
2022/08/11 03:28:15;;;;;;;7.28;3.60;;;19.20;89.00;;;15.82;92.42;101170.56;5032048;28;20046;-86
2022/08/11 03:30:54;;;;;;;5.90;3.42;;;19.10;89.00;;;15.85;92.45;101175.66;5042294;28;20075;-86
2022/08/11 03:36:40;;;;;;;8.50;3.47;;;19.10;89.40;;;15.80;92.99;101179.03;5024446;28;20048;-86
2022/08/11 03:39:17;;;;;;;5.90;3.65;;;19.10;89.40;;;15.78;93.43;101174.75;5046864;28;20103;-86
2022/08/11 03:42:00;;;;;;;6.45;3.30;;;19.00;89.70;;;15.75;93.52;101178.78;5046605;28;20049;-86
2022/08/11 03:44:47;;;;;;;7.03;3.47;;;19.00;89.60;;;15.75;93.47;101180.69;5051326;28;20544;-86
2022/08/11 03:47:44;;;;;;;10.70;3.90;;;19.00;89.60;;;15.74;93.74;101177.06;5050172;28;20032;-86
2022/08/11 03:50:28;;;;;;;7.38;3.45;;;19.00;89.80;;;15.70;94.13;101172.16;5050244;28;20036;-86
2022/08/11 03:53:13;;;;;;;8.98;4.18;;;19.00;90.10;;;15.70;94.35;101173.00;5048286;28;20079;-86
2022/08/11 03:56:41;;;;;;;8.05;3.63;;;19.00;90.30;;;15.68;94.43;101177.84;5036130;28;20042;-86
2022/08/11 03:59:44;;;;;;;6.85;3.67;;;18.90;90.10;;;15.64;94.50;101169.16;4969884;28;20472;-86
2022/08/11 04:02:43;;;;;;;10.70;3.75;;;18.90;90.20;;;15.62;94.62;101171.28;5049775;28;20036;-86
2022/08/11 04:06:13;;;;;;;6.80;3.70;;;18.90;90.20;;;15.59;94.69;101177.19;5040126;28;20048;-86
2022/08/11 04:09:22;;;;;;;6.80;3.70;;;18.90;90.50;;;15.56;95.31;101174.81;5010572;28;20144;-86
2022/08/11 04:12:45;;;;;;;6.20;4.00;;;18.80;90.60;;;15.57;95.19;101178.41;5042554;28;20095;-86
2022/08/11 04:16:01;;;;;;;7.03;3.75;;;18.80;90.80;;;15.56;95.11;101174.81;5048657;28;20049;-88
2022/08/11 04:19:38;;;;;;;7.32;4.10;;;18.80;90.60;;;15.57;95.40;101173.78;4990899;28;20077;-84
2022/08/11 04:22:39;;;;;;;9.40;3.92;;;18.80;90.70;;;15.59;95.17;101179.06;5040115;28;20116;-87
2022/08/11 04:25:28;;;;;;;6.65;4.10;;;18.80;90.90;;;15.58;95.52;101174.63;5040053;28;20043;-87
2022/08/11 04:28:45;;;;;;;6.95;4.05;;;18.80;91.10;;;15.63;95.51;101172.97;5049512;28;20045;-88
2022/08/11 04:31:38;;;;;;;8.50;4.13;;;18.80;91.20;;;15.69;95.30;101171.31;5041951;28;20069;-88
2022/08/11 04:34:40;;;;;;;12.65;4.00;;;18.80;91.40;;;15.75;95.23;101173.28;5047351;28;20160;-87
2022/08/11 04:37:57;;;;;;;7.22;4.07;;;18.80;91.30;;;15.81;95.19;101174.38;5037457;28;20049;-87
2022/08/11 04:43:19;;;;;;;9.15;4.03;;;18.80;91.40;;;15.83;95.94;101166.78;5046861;28;20049;-86
2022/08/11 04:45:29;;;;;;;6.97;4.07;;;18.80;92.00;;;15.85;96.27;101164.69;5049543;28;20576;-86
2022/08/11 05:05:29;;;;;;;11.80;4.57;;;18.90;93.30;;;16.44;94.88;101173.34;5048143;28;20049;-85
2022/08/11 05:07:47;;;;;;;13.10;4.85;;;18.90;93.00;;;16.58;94.24;101173.19;5049772;28;20036;-85
2022/08/11 05:10:29;;;;;;;12.60;4.82;;;19.00;93.00;;;16.78;92.45;101181.44;5049390;28;20041;-84
2022/08/11 05:27:09;;;;;;;7.93;4.40;;;19.10;92.50;;;16.91;91.58;101179.81;5023926;28;20131;-84
2022/08/11 05:35:48;;;;;;;12.70;5.22;;;19.50;91.60;;;17.67;87.25;101186.72;5042330;28;20282;-83
2022/08/11 05:58:01;;;;;;;10.20;4.38;;;19.90;91.20;;;18.35;84.19;101189.94;5056746;28;20506;-83
2022/08/11 06:00:29;;;;;;;13.82;4.57;;;20.00;90.60;;;18.46;85.47;101182.00;5062913;28;20101;-83
2022/08/11 06:02:59;;;;;;;13.70;4.88;;;20.00;90.80;;;18.49;83.53;101182.44;5042667;28;20464;-83
2022/08/11 06:05:34;;;;;;;16.27;4.75;;;20.10;90.50;;;18.69;81.90;101186.97;5062522;28;20563;-82
2022/08/11 06:08:02;;;;;;;9.32;4.32;;;20.20;89.50;;;18.73;82.67;101179.94;5072887;28;20075;-82
2022/08/11 06:10:33;;;;;;;10.30;4.55;;;20.20;90.00;;;18.88;80.52;101179.66;5072186;28;20040;-83
2022/08/11 06:13:03;;;;;;;8.75;4.45;;;20.30;89.10;;;19.04;79.86;101183.75;5062909;28;20044;-82
2022/08/11 06:15:34;;;;;;;9.63;4.43;;;20.30;88.60;;;19.07;81.24;101183.31;5060398;28;20037;-83
2022/08/11 06:18:03;;;;;;;7.65;4.40;;;20.30;89.30;;;19.09;81.93;101184.78;5039639;28;20070;-83
2022/08/11 06:20:36;;;;;;;9.32;4.40;;;20.50;90.00;;;19.32;77.87;101186.06;5064188;28;20071;-83
2022/08/11 06:23:07;;;;;;;9.25;4.60;;;20.50;89.00;;;19.50;77.36;101183.38;5071523;28;20052;-83
2022/08/11 06:25:35;;;;;;;;;;;20.60;88.20;;;19.82;74.34;101182.41;5061946;28;20041;-82
2022/08/11 06:28:07;;;;;;;13.15;4.78;;;20.70;87.10;;;20.08;74.37;101176.56;5057295;28;19931;-83
2022/08/11 06:30:39;;;;;;;8.10;3.95;;;20.80;86.90;;;20.27;75.12;101174.63;5063891;28;20044;-83
2022/08/11 06:33:11;;;;;;;10.65;4.32;;;20.90;87.30;;;20.45;73.23;101170.16;5071019;28;20425;-83
2022/08/11 06:35:50;;;;;;;7.05;3.75;;;21.00;87.00;;;20.68;70.00;101178.56;5053182;28;20135;-82
2022/08/11 06:38:39;;;;;;;7.82;4.10;;;21.10;85.70;;;20.91;68.14;101176.09;5068484;28;20041;-82
2022/08/11 06:41:30;;;;;;;7.47;3.80;;;21.10;85.40;;;21.13;68.10;101174.44;5066869;28;20291;-83
2022/08/11 06:44:16;;;;;;;9.07;4.13;;;21.20;85.00;;;21.26;67.19;101174.22;5062992;28;20044;-83
2022/08/11 06:46:47;;;;;;;8.13;3.85;;;21.30;84.50;;;21.34;69.23;101173.00;5065755;28;20068;-83
2022/08/11 06:52:05;;;;;;;11.13;3.80;;;21.50;84.10;;;21.67;64.26;101168.84;5070917;28;19920;-83
2022/08/11 06:54:36;;;;;;;9.80;4.25;;;21.60;82.80;;;21.73;62.92;101167.84;5066306;28;20459;-83
2022/08/11 07:02:49;;;;;;;9.73;3.40;;;21.80;81.20;;;21.83;65.16;101170.84;5043958;28;20056;-82
2022/08/11 07:05:26;;;;;;;14.65;3.97;;;21.90;82.60;;;21.86;61.95;101173.13;5063091;28;20491;-82
2022/08/11 07:17:48;;;;;;;13.93;3.90;;;22.10;79.60;;;22.16;59.90;101172.09;5059087;28;20040;-83
2022/08/11 07:28:58;;;;;;;16.05;4.13;;;22.30;79.20;;;22.42;59.73;101172.63;5070212;28;20070;-83
2022/08/11 07:31:34;;;;;;;11.45;4.18;;;22.40;79.00;;;22.56;59.85;101175.94;5059135;28;20041;-83
2022/08/11 07:34:18;;;;;;;8.18;3.88;;;22.40;79.00;;;22.69;59.06;101174.81;5057557;28;20044;-83
2022/08/11 07:36:51;;;;;;;10.40;3.83;;;22.50;78.80;;;22.75;58.84;101171.88;5068141;28;20033;-82
2022/08/11 07:39:22;;;;;;;11.40;3.83;;;22.60;78.50;;;22.86;58.50;101172.88;5061812;28;20092;-82
2022/08/11 07:41:51;;;;;;;11.77;3.63;;;22.60;78.20;;;22.94;58.26;101166.09;5065917;28;20115;-82
2022/08/11 07:44:20;;;;;;;10.20;3.65;;;22.70;78.10;;;23.01;58.96;101167.59;5058535;28;20041;-82
2022/08/11 07:52:32;;;;;;;14.50;3.83;;;22.90;78.80;;;23.31;56.47;101155.34;5050453;28;20497;-82
2022/08/11 07:55:02;;;;;;;16.67;3.53;;;23.00;77.10;;;23.38;57.22;101157.94;5062821;28;20045;-82
2022/08/11 08:19:48;;;;;;;8.98;3.50;;;23.60;73.70;;;24.04;53.35;101158.03;5064650;28;20052;-83
2022/08/11 08:22:18;;;;;;;8.15;4.00;;;23.70;73.80;;;24.09;51.67;101149.78;5062053;28;20450;-83
2022/08/11 08:24:46;;;;;;;9.70;3.33;;;23.70;72.00;;;24.19;55.57;101155.44;5065929;28;20131;-84
2022/08/11 08:27:15;;;;;;;11.73;3.53;;;23.80;75.60;;;24.34;53.02;101152.00;5061141;28;20118;-84
2022/08/11 08:32:33;;;;;;;8.10;3.38;;;24.00;72.90;;;24.42;51.58;101161.81;5058338;28;20511;-85
2022/08/11 08:35:04;;;;;;;10.32;3.45;;;24.10;71.90;;;24.47;50.50;101153.53;5056119;28;20549;-84
2022/08/11 08:37:32;;;;;;;10.95;3.97;;;24.00;70.70;;;24.59;50.24;101158.97;5059779;28;20051;-84
2022/08/11 08:39:59;;;;;;;11.63;4.13;;;24.10;70.80;;;24.69;50.57;101149.88;5048579;28;20568;-84
2022/08/11 08:42:31;;;;;;;6.90;3.88;;;24.20;71.30;;;24.74;49.33;101158.28;5063434;28;20044;-85
2022/08/11 08:45:05;;;;;;;13.20;3.33;;;24.30;69.70;;;24.81;48.37;101155.28;5057528;28;20139;-84
2022/08/11 08:47:36;;;;;;;10.65;3.50;;;24.30;69.50;;;24.81;47.66;101156.16;5057702;28;20469;-84
2022/08/11 08:50:10;;;;;;;7.32;3.33;;;24.30;68.30;;;24.87;48.98;101166.22;5068229;28;20124;-84
2022/08/11 08:52:45;;;;;;;10.07;3.45;;;24.40;69.40;;;24.96;50.53;101159.06;5056425;28;20037;-84
2022/08/11 08:55:18;;;;;;;10.70;3.35;;;24.40;70.30;;;25.09;48.84;101155.00;5063665;28;20561;-84
2022/08/11 08:57:49;;;;;;;13.02;3.55;;;24.50;69.20;;;25.11;48.03;101154.69;5063530;28;20068;-84
2022/08/11 09:00:18;;;;;;;8.38;3.55;;;24.60;68.30;;;25.27;49.44;101158.50;5070063;28;20041;-84
2022/08/11 09:02:46;;;;;;;7.18;3.13;;;24.60;70.10;;;25.26;48.59;101163.22;5063936;28;20111;-85
2022/08/11 09:05:18;;;;;;;6.15;3.17;;;24.70;68.90;;;25.24;49.84;101150.66;5064744;28;20036;-88
2022/08/11 09:07:47;;;;;;;7.93;3.30;;;24.80;70.30;;;25.28;49.55;101163.78;5072394;28;20053;-88
2022/08/11 09:10:18;;;;;;;5.05;2.85;;;24.80;70.00;;;25.30;49.31;101156.03;5067058;28;20130;-88
2022/08/11 09:12:46;;;;;;;7.28;3.67;;;24.90;69.50;;;25.38;48.21;101153.81;5065141;28;20127;-87
2022/08/11 09:15:15;;;;;;;9.13;3.72;;;24.90;68.60;;;25.38;47.62;101149.09;5060624;28;20048;-88
2022/08/11 09:17:46;;;;;;;10.20;3.40;;;24.90;67.50;;;25.47;47.83;101157.78;5060076;28;20388;-89
2022/08/11 09:20:17;;;;;;;;;;;25.00;68.70;;;25.43;46.76;101156.66;5053884;28;20473;-87
2022/08/11 09:28:20;;;;;;;6.72;2.78;;;25.00;65.30;;;25.66;46.18;101141.44;5064642;28;20044;-88
2022/08/11 09:30:52;;;;;;;7.93;3.20;;;25.10;67.30;;;25.71;45.21;101147.91;5060939;28;20057;-88
2022/08/11 09:33:21;;;;;;;7.57;2.78;;;25.10;65.30;;;25.78;43.60;101147.66;5060520;28;20118;-87
2022/08/11 09:35:52;;;;;;;9.00;3.28;;;25.20;63.80;;;25.73;43.46;101150.41;5046925;28;20590;-87
2022/08/11 09:41:14;;;;;;;9.18;3.15;;;25.30;67.60;;;25.72;44.39;101141.22;5068304;28;20033;-87
2022/08/11 09:46:32;;;;;;;9.68;3.80;;;25.40;63.10;;;25.72;42.28;101141.22;5065643;28;20052;-85
2022/08/11 09:49:02;;;;;;;6.30;3.28;;;25.30;60.70;;;25.71;42.57;101128.38;5073130;28;20124;-85
2022/08/11 09:51:33;;;;;;;6.53;2.83;;;25.30;61.00;;;25.77;40.74;101131.19;5072105;28;20040;-85
2022/08/11 09:54:05;;;;;;;8.07;3.20;;;25.30;59.70;;;25.91;42.11;101135.16;5065078;28;20036;-85
2022/08/11 09:59:21;;;;;;;5.25;2.88;;;25.40;59.20;;;26.00;38.08;101129.94;5063636;28;20049;-88
2022/08/11 10:10:04;;;;;;;8.23;2.85;;;25.60;58.00;;;25.97;40.31;101128.53;5051710;28;20662;-87
2022/08/11 10:12:36;;;;;;;7.10;2.90;;;25.60;57.60;;;25.99;38.56;101117.09;5045850;28;20533;-86
2022/08/11 10:20:50;;;;;;;9.38;2.90;;;25.60;57.30;;;26.16;38.71;101114.06;5019450;28;20045;-87
2022/08/11 10:28:53;;;;;;;5.95;2.72;;;25.60;55.40;;;26.20;37.24;101104.03;5055136;28;20038;-90
2022/08/11 10:34:09;;;;;;;10.30;2.90;;;25.70;54.80;;;26.24;37.44;101099.59;5046527;28;20038;-92
2022/08/11 10:36:43;;;;;;;9.80;2.88;;;25.70;55.00;;;26.40;38.17;101103.25;5032641;28;20102;-85
2022/08/11 10:39:16;;;;;;;7.20;3.00;;;25.70;55.90;;;26.41;39.32;101093.78;5037882;28;20091;-85
2022/08/11 10:44:39;;;;;;;8.73;3.03;;;25.90;54.90;;;26.32;38.27;101090.69;5037556;28;20037;-85
2022/08/11 11:01:02;;;;;;;6.75;3.05;;;25.90;54.40;;;26.34;36.80;101082.88;5033808;28;20465;-83
2022/08/11 11:03:33;;;;;;;6.47;2.72;;;25.80;54.60;;;26.38;36.80;101081.19;5045462;28;20048;-83
2022/08/11 11:06:10;;;;;;;4.63;2.80;;;25.80;55.40;;;26.32;36.60;101074.78;5043286;28;20064;-85
2022/08/11 11:08:54;;;;;;;8.05;3.30;;;25.80;54.40;;;26.30;38.29;101067.81;5049544;28;20075;-86
2022/08/11 11:17:54;;;;;;;12.90;3.08;;;25.80;56.20;;;26.37;39.20;101071.16;5055965;28;20037;-84
2022/08/11 11:19:57;;;;;;;9.73;3.42;;;25.90;55.20;;;26.56;37.52;101056.66;5059806;28;20045;-85
2022/08/11 11:22:40;;;;;;;6.45;2.78;;;26.00;56.10;;;26.53;36.92;101063.63;5019511;28;20076;-85
2022/08/11 11:26:05;;;;;;;11.35;3.40;;;26.00;55.50;;;26.63;37.38;101057.25;5045310;28;20065;-84
2022/08/11 11:29:09;;;;;;;6.38;3.13;;;26.00;55.30;;;26.58;37.56;101051.63;5060226;28;20048;-85
2022/08/11 11:31:54;;;;;;;8.52;3.20;;;26.00;55.50;;;26.61;36.33;101053.91;5044917;28;20041;-84
2022/08/11 11:35:10;;;;;;;13.05;3.30;;;26.00;54.00;;;26.59;37.58;101045.78;5073791;23;20071;-85
2022/08/11 11:37:39;;;;;;;7.65;3.03;;;26.10;54.80;;;26.52;36.35;101043.25;5060878;28;20135;-85
2022/08/11 11:40:11;;;;;;;5.30;2.97;;;26.00;54.30;;;26.57;36.69;101042.41;5067967;28;20032;-84
2022/08/11 11:42:41;;;;;;;6.47;3.10;;;26.10;54.80;;;26.59;36.09;101040.22;5069068;28;20131;-85
2022/08/11 11:45:11;;;;;;;7.63;3.00;;;26.10;54.70;;;26.73;38.03;101034.88;5065469;28;20068;-83
2022/08/11 11:47:40;;;;;;;6.60;2.70;;;26.10;56.30;;;26.66;36.67;101048.31;5069334;28;20163;-85
2022/08/11 11:50:09;;;;;;;6.80;2.88;;;26.10;54.30;;;26.64;35.47;101044.97;5066978;28;20058;-84
2022/08/11 11:52:38;;;;;;;9.43;3.42;;;26.10;52.80;;;26.61;35.67;101029.59;5060410;28;20072;-84
2022/08/11 11:55:08;;;;;;;8.77;2.63;;;26.10;53.00;;;26.61;35.67;101029.59;5064247;28;20052;-84
2022/08/11 12:03:11;;;;;;;7.40;3.00;;;26.20;55.00;;;26.61;35.67;101029.59;5061674;28;20059;-84
2022/08/11 12:05:41;;;;;;;7.10;3.38;;;26.20;53.90;;;26.61;35.67;101029.59;5059508;28;20071;-82
2022/08/11 12:08:14;;;;;;;8.35;3.55;;;26.10;54.00;;;26.61;35.67;101029.59;5062098;28;20494;-86
2022/08/11 12:10:46;;;;;;;7.55;3.60;;;26.20;55.00;;;26.61;35.67;101029.59;5069190;28;20110;-81
2022/08/11 12:16:02;;;;;;;8.70;3.10;;;26.20;54.00;;;26.61;35.67;101029.59;5064149;28;20098;-81
2022/08/11 12:18:35;;;;;;;3.83;2.70;;;26.20;53.30;;;26.61;35.67;101029.59;5057643;28;20044;-81
2022/08/11 12:21:05;;;;;;;10.48;3.50;;;26.20;54.60;;;26.61;35.67;101029.59;5050656;28;20041;-81
2022/08/11 12:29:05;;;;;;;5.43;3.13;;;26.10;52.70;;;26.61;35.67;101029.59;5070332;28;20040;-81
2022/08/11 12:31:34;;;;;;;10.05;3.00;;;26.20;54.00;;;26.61;35.67;101029.59;5070378;28;20493;-81
2022/08/11 12:34:05;;;;;;;7.68;3.55;;;26.20;54.60;;;26.61;35.67;101029.59;5068233;28;20076;-81
2022/08/11 12:36:35;;;;;;;;;;;26.20;54.80;;;26.61;35.67;101029.59;5050414;28;20074;-81
2022/08/11 12:39:05;;;;;;;8.18;3.30;;;26.30;54.10;;;26.61;35.67;101029.59;5070283;28;19920;-81
2022/08/11 12:47:04;;;;;;;6.78;2.97;;;26.20;52.50;;;26.61;35.67;101029.59;5067457;28;20123;-80
2022/08/11 12:52:29;;;;;;;7.93;3.38;;;26.30;51.50;;;26.61;35.67;101029.59;5070170;28;20500;-80
2022/08/11 12:55:02;;;;;;;5.88;2.80;;;26.20;51.70;;;26.61;35.67;101029.59;5067967;28;20128;-81
2022/08/11 13:05:58;;;;;;;8.82;2.95;;;26.30;52.90;;;26.61;35.67;101029.59;5050512;28;20040;-80
2022/08/11 13:08:28;;;;;;;7.40;3.05;;;26.30;53.30;;;26.61;35.67;101029.59;5070021;28;20127;-80
2022/08/11 13:13:45;;;;;;;8.48;3.15;;;26.30;52.90;;;26.61;35.67;101029.59;5051010;28;20045;-80
2022/08/11 13:16:13;;;;;;;4.97;3.03;;;26.30;52.50;;;26.61;35.67;101029.59;5066505;28;20074;-80
2022/08/11 13:18:42;;;;;;;7.68;3.13;;;26.30;52.80;;;26.61;35.67;101029.59;5070049;28;20098;-80
2022/08/11 13:21:13;;;;;;;9.13;3.13;;;26.40;53.90;;;26.61;35.67;101029.59;5069905;28;20051;-80
2022/08/11 13:23:41;;;;;;;;;;;26.40;52.80;;;26.61;35.67;101029.59;5070067;28;20053;-80
2022/08/11 13:26:09;;;;;;;4.72;2.40;;;26.40;51.80;;;26.61;35.67;101029.59;5058888;28;19956;-80
2022/08/11 13:28:37;;;;;;;6.32;2.88;;;26.40;53.10;;;26.61;35.67;101029.59;5068968;28;20036;-80
2022/08/11 13:31:14;;;;;;;6.20;2.78;;;26.40;52.10;;;26.61;35.67;101029.59;5069340;28;20041;-79
2022/08/11 13:33:44;;;;;;;5.40;2.85;;;26.40;52.00;;;26.61;35.67;101029.59;5056960;28;20649;-79
2022/08/11 13:36:15;;;;;;;9.27;3.03;;;26.40;52.50;;;26.61;35.67;101029.59;5066199;28;20036;-79
2022/08/11 13:38:44;;;;;;;6.30;3.10;;;26.40;51.90;;;26.61;35.67;101029.59;5069411;28;20048;-79
2022/08/11 13:43:58;;;;;;;10.73;3.55;;;26.40;52.20;;;26.61;35.67;101029.59;5051697;28;20045;-80
2022/08/11 13:46:27;;;;;;;8.73;3.00;;;26.40;53.40;;;26.61;35.67;101029.59;5055377;28;20044;-80
2022/08/11 13:48:57;;;;;;;8.40;3.00;;;26.50;51.50;;;26.61;35.67;101029.59;5052616;28;20127;-80
2022/08/11 13:51:33;;;;;;;6.20;3.10;;;26.50;53.70;;;26.61;35.67;101029.59;5053249;28;20045;-80
2022/08/11 13:54:04;;;;;;;9.13;3.13;;;26.40;53.30;;;26.61;35.67;101029.59;5054650;28;20050;-80
2022/08/11 13:56:33;;;;;;;10.43;3.42;;;26.50;51.50;;;26.61;35.67;101029.59;5069690;28;20068;-80
2022/08/11 13:59:03;;;;;;;11.63;3.42;;;26.50;51.70;;;26.61;35.67;101029.59;5073257;28;20043;-80
2022/08/11 14:01:35;;;;;;;5.10;3.17;;;26.50;52.00;;;26.61;35.67;101029.59;5054631;28;20473;-80
2022/08/11 14:04:10;;;;;;;7.72;2.85;;;26.50;52.10;;;26.61;35.67;101029.59;5071738;28;20140;-78
2022/08/11 14:06:43;;;;;;;9.38;3.25;;;26.50;52.60;;;26.61;35.67;101029.59;5061305;28;20111;-83
2022/08/11 14:09:12;;;;;;;7.88;3.28;;;26.50;52.10;;;26.61;35.67;101029.59;5067832;28;20142;-82
2022/08/11 14:14:34;;;;;;;9.60;3.28;;;26.50;51.30;;;26.61;35.67;101029.59;5013471;28;20056;-83
2022/08/11 14:17:07;;;;;;;8.60;3.10;;;26.50;50.90;;;26.61;35.67;101029.59;5064578;28;20098;-83
2022/08/11 14:19:40;;;;;;;6.30;2.67;;;26.60;51.00;;;26.94;34.49;100906.38;5063851;28;20029;-83
2022/08/11 14:22:10;;;;;;;13.07;3.38;;;26.60;50.50;;;26.89;34.51;100905.28;5065789;28;20537;-84
2022/08/11 14:24:41;;;;;;;9.35;2.95;;;26.60;50.10;;;26.84;34.37;100902.50;5064872;28;20434;-87
2022/08/11 14:27:11;;;;;;;5.53;2.70;;;26.60;50.10;;;26.96;34.38;100904.13;5068784;28;20098;-83
2022/08/11 14:29:42;;;;;;;8.23;3.17;;;26.50;49.90;;;26.91;34.38;100908.63;5069498;28;20120;-81
2022/08/11 14:32:11;;;;;;;;;;;26.60;49.70;;;26.92;33.86;100893.53;5059840;28;20094;-81
2022/08/11 14:34:43;;;;;;;9.35;3.28;;;26.60;49.30;;;26.97;34.02;100889.06;5068011;28;20371;-81
2022/08/11 14:37:14;;;;;;;7.75;3.33;;;26.60;49.80;;;27.02;34.40;100894.63;5063172;28;20871;-81
2022/08/11 14:39:45;;;;;;;12.95;3.03;;;26.70;50.10;;;26.92;34.03;100893.53;5063843;28;20223;-81
2022/08/11 14:48:01;;;;;;;8.57;3.08;;;26.70;49.50;;;26.84;33.60;100882.13;5064973;28;20041;-81
2022/08/11 14:50:31;;;;;;;11.55;3.10;;;26.60;49.30;;;26.91;34.33;100891.03;5060003;28;20123;-81
2022/08/11 14:53:03;;;;;;;10.32;3.25;;;26.70;49.90;;;26.87;34.02;100887.97;5062134;28;20115;-81
2022/08/11 14:58:25;;;;;;;7.38;2.70;;;26.60;49.30;;;27.00;34.23;100878.16;5061969;28;20029;-81
2022/08/11 15:00:56;;;;;;;6.53;2.88;;;26.60;50.20;;;26.93;34.46;100877.63;5061751;28;20761;-81
2022/08/11 15:03:24;;;;;;;9.77;2.97;;;26.60;50.10;;;26.98;33.41;100876.75;5066347;28;20039;-81
2022/08/11 15:05:55;;;;;;;7.40;2.78;;;26.60;50.40;;;26.97;33.29;100875.09;5065559;28;20486;-82
2022/08/11 15:14:04;;;;;;;7.82;3.10;;;26.70;48.50;;;27.20;32.67;100873.56;5067055;28;20068;-82
2022/08/11 15:19:19;;;;;;;11.88;2.97;;;26.70;48.50;;;27.01;32.74;100865.00;5056949;28;19965;-82